Back to Top

Language: 

My Weather Underground Personal Weather Station Historical Data with Graphs...

Delerius Weather Station Historical Data
Daily Summary for December 11, 2017 Units:  Metric    English   Both
« Previous Day
Next Day »
Daily Weekly Monthly Yearly Custom
  High: Low: Average:
Temperature: 2.9 °C -3.2 °C -0.7 °C
Dew Point: -1.3 °C -5.2 °C -3.1 °C
Humidity: 93 % 71 % 84 %
Wind Speed: 14.5 km/h 0 km/h 7.1 km/h
Wind Gust: 22.5 km/h - -
Wind:- - NW
Pressure: 999.2 hPa 983.6 hPa -
Precipitation: 0.51 mm    
Historical Graphs
 
 
Tabular Data for December 11, 2017
Time Temperature Dew Point Pressure Wind Wind Speed Wind Gust Humidity Rainfall Rate (Hourly) solar Conditions
00:06 -0.6 °C -2.1 °C 984 hPa NW 1.6 km/h 8 km/h 90 % 0 mm 0 W/m2
00:11 -0.6 °C -2.1 °C 983.6 hPa NNW 8 km/h 12.9 km/h 90 % 0 mm 0 W/m2
00:21 -0.8 °C -2.2 °C 983.6 hPa NNW 6.4 km/h 9.7 km/h 90 % 0 mm 0 W/m2
00:26 -0.8 °C -2.2 °C 983.6 hPa NNW 3.2 km/h 8 km/h 90 % 0 mm 0 W/m2
00:31 -0.9 °C -2.3 °C 984 hPa NW 3.2 km/h 9.7 km/h 90 % 0 mm 0 W/m2
00:36 -0.9 °C -2.3 °C 984 hPa NNW 1.6 km/h 8 km/h 90 % 0 mm 0 W/m2
00:41 -1 °C -2.4 °C 984 hPa Calm   1.6 km/h 90 % 0 mm 0 W/m2
00:46 -1.1 °C -2.6 °C 984.3 hPa Calm   3.2 km/h 90 % 0 mm 0 W/m2
00:56 -1.4 °C -2.8 °C 984.3 hPa NNW 3.2 km/h 8 km/h 90 % 0 mm 0 W/m2
01:01 -1.5 °C -2.9 °C 984.3 hPa NNW 1.6 km/h 4.8 km/h 90 % 0 mm 0 W/m2
01:06 -1.6 °C -3 °C 984.3 hPa NW 1.6 km/h 8 km/h 90 % 0 mm 0 W/m2
01:11 -1.6 °C -2.9 °C 984.3 hPa NW 3.2 km/h 8 km/h 91 % 0 mm 0 W/m2
01:16 -1.6 °C -2.9 °C 984.3 hPa NW 1.6 km/h 8 km/h 91 % 0 mm 0 W/m2
01:31 -1.8 °C -3.1 °C 984.6 hPa NW 3.2 km/h 9.7 km/h 91 % 0 mm 0 W/m2
01:36 -1.8 °C -3.1 °C 984.6 hPa NW 3.2 km/h 6.4 km/h 91 % 0 mm 0 W/m2
01:46 -1.8 °C -3.1 °C 985 hPa WNW 1.6 km/h 6.4 km/h 91 % 0 mm 0 W/m2
01:51 -1.9 °C -3.2 °C 985 hPa WNW 1.6 km/h 6.4 km/h 91 % 0 mm 0 W/m2
02:01 -2 °C -3.1 °C 985 hPa WNW 1.6 km/h 6.4 km/h 92 % 0 mm 0 W/m2
02:06 -2 °C -3.1 °C 985 hPa WNW 4.8 km/h 8 km/h 92 % 0 mm 0 W/m2
02:16 -2 °C -3.1 °C 985.3 hPa NW 4.8 km/h 9.7 km/h 92 % 0 mm 0 W/m2
02:21 -2 °C -3.1 °C 985.3 hPa NNW 6.4 km/h 11.3 km/h 92 % 0 mm 0 W/m2
02:26 -1.9 °C -3 °C 985.3 hPa NW 6.4 km/h 9.7 km/h 92 % 0 mm 0 W/m2
02:31 -1.9 °C -3 °C 985.3 hPa NW 4.8 km/h 9.7 km/h 92 % 0 mm 0 W/m2
02:36 -1.9 °C -3 °C 985.3 hPa NW 4.8 km/h 8 km/h 92 % 0 mm 0 W/m2
02:42 -1.9 °C -3 °C 985.3 hPa NW 4.8 km/h 8 km/h 92 % 0 mm 0 W/m2
02:47 -2 °C -3.1 °C 985.3 hPa NW 1.6 km/h 6.4 km/h 92 % 0 mm 0 W/m2
02:52 -2.1 °C -3.2 °C 985.3 hPa NW 4.8 km/h 9.7 km/h 92 % 0 mm 0 W/m2
02:57 -2.1 °C -3.2 °C 985.3 hPa NW 6.4 km/h 9.7 km/h 92 % 0 mm 0 W/m2
03:02 -2.2 °C -3.3 °C 985.7 hPa NW 4.8 km/h 8 km/h 92 % 0 mm 0 W/m2
03:12 -2.2 °C -3.3 °C 985.3 hPa NW 3.2 km/h 9.7 km/h 92 % 0 mm 0 W/m2
03:13 -2.2 °C -3.3 °C 985.3 hPa NNW 4.8 km/h 9.7 km/h 92 % 0 mm 0 W/m2
03:18 -2.3 °C -3.4 °C 985.3 hPa NNW 4.8 km/h 9.7 km/h 92 % 0 mm 0 W/m2
03:23 -2.3 °C -3.4 °C 985.7 hPa Calm   4.8 km/h 92 % 0 mm 0 W/m2
03:28 -2.3 °C -3.4 °C 985.3 hPa North 1.6 km/h 6.4 km/h 92 % 0 mm 0 W/m2
03:33 -2.3 °C -3.6 °C 985.3 hPa NW 1.6 km/h 6.4 km/h 91 % 0 mm 0 W/m2
03:38 -2.4 °C -3.7 °C 985.3 hPa NW 3.2 km/h 6.4 km/h 91 % 0 mm 0 W/m2
03:43 -2.6 °C -3.9 °C 985.3 hPa NW 4.8 km/h 8 km/h 91 % 0 mm 0 W/m2
03:48 -2.6 °C -3.9 °C 985.3 hPa NW 3.2 km/h 9.7 km/h 91 % 0 mm 0 W/m2
03:58 -2.7 °C -3.8 °C 985 hPa NW 3.2 km/h 8 km/h 92 % 0 mm 0 W/m2
04:03 -2.7 °C -3.8 °C 985.3 hPa Calm   3.2 km/h 92 % 0 mm 0 W/m2
04:08 -2.7 °C -3.8 °C 985.3 hPa NW 3.2 km/h 4.8 km/h 92 % 0 mm 0 W/m2
04:13 -2.8 °C -3.9 °C 985.3 hPa NW 4.8 km/h 8 km/h 92 % 0 mm 0 W/m2
04:18 -2.8 °C -3.9 °C 985.3 hPa NW 4.8 km/h 8 km/h 92 % 0 mm 0 W/m2
04:23 -2.8 °C -3.9 °C 985.3 hPa NNW 8 km/h 11.3 km/h 92 % 0 mm 0 W/m2
04:28 -2.6 °C -3.6 °C 985.3 hPa NNW 11.3 km/h 17.7 km/h 93 % 0 mm 0 W/m2
04:33 -2.3 °C -3.4 °C 985.3 hPa NNW 8 km/h 12.9 km/h 92 % 0 mm 0 W/m2
04:38 -2.2 °C -3.3 °C 985.3 hPa NNW 8 km/h 12.9 km/h 92 % 0 mm 0 W/m2
04:43 -2.1 °C -3.4 °C 985 hPa NW 6.4 km/h 11.3 km/h 91 % 0 mm 0 W/m2
04:48 -2.2 °C -3.4 °C 985 hPa NW 4.8 km/h 9.7 km/h 91 % 0 mm 0 W/m2
04:53 -2.3 °C -3.7 °C 985 hPa NW 3.2 km/h 6.4 km/h 90 % 0 mm 0 W/m2
04:58 -2.3 °C -3.7 °C 985 hPa NW 4.8 km/h 6.4 km/h 90 % 0 mm 0 W/m2
05:03 -2.5 °C -3.9 °C 985 hPa NW 4.8 km/h 8 km/h 90 % 0 mm 0 W/m2
05:08 -2.6 °C -4 °C 985 hPa NNW 4.8 km/h 8 km/h 90 % 0 mm 0 W/m2
05:13 -2.7 °C -4.1 °C 985 hPa NNW 3.2 km/h 9.7 km/h 90 % 0 mm 0 W/m2
05:18 -2.7 °C -3.9 °C 985 hPa NNW 4.8 km/h 8 km/h 91 % 0 mm 0 W/m2
05:23 -2.7 °C -3.9 °C 985 hPa NNW 4.8 km/h 9.7 km/h 91 % 0 mm 0 W/m2
05:28 -2.7 °C -3.9 °C 985 hPa NNW 6.4 km/h 12.9 km/h 91 % 0 mm 0 W/m2
05:33 -2.5 °C -3.8 °C 984.6 hPa NNW 6.4 km/h 11.3 km/h 91 % 0 mm 0 W/m2
05:38 -2.3 °C -3.6 °C 985 hPa NNW 6.4 km/h 11.3 km/h 91 % 0 mm 0 W/m2
05:43 -2.2 °C -3.4 °C 985 hPa North 8 km/h 11.3 km/h 91 % 0 mm 0 W/m2
05:48 -2.1 °C -3.5 °C 985 hPa NNW 8 km/h 16.1 km/h 90 % 0 mm 0 W/m2
05:53 -2 °C -3.4 °C 985 hPa NNW 8 km/h 16.1 km/h 90 % 0 mm 0 W/m2
05:58 -1.9 °C -3.4 °C 985 hPa NNW 9.7 km/h 14.5 km/h 89 % 0 mm 0 W/m2
06:06 -1.9 °C -3.6 °C 985 hPa NNW 8 km/h 14.5 km/h 88 % 0 mm 0 W/m2
06:11 -1.9 °C -3.6 °C 985.3 hPa NNW 9.7 km/h 12.9 km/h 88 % 0 mm 0 W/m2
06:16 -1.9 °C -3.6 °C 985.3 hPa NNW 6.4 km/h 14.5 km/h 88 % 0 mm 0 W/m2
06:21 -1.9 °C -3.8 °C 985.3 hPa NNW 4.8 km/h 9.7 km/h 87 % 0 mm 0 W/m2
06:31 -1.9 °C -3.8 °C 985.3 hPa NNW 8 km/h 14.5 km/h 87 % 0 mm 0 W/m2
06:36 -1.9 °C -3.8 °C 985.7 hPa NNW 8 km/h 16.1 km/h 87 % 0 mm 0 W/m2
06:41 -1.9 °C -3.9 °C 985.7 hPa NNW 9.7 km/h 12.9 km/h 86 % 0 mm 0 W/m2
06:44 -1.9 °C -3.9 °C 985.7 hPa NNW 6.4 km/h 11.3 km/h 86 % 0 mm 0 W/m2
06:49 -1.9 °C -3.9 °C 985.7 hPa NW 4.8 km/h 9.7 km/h 86 % 0 mm 0 W/m2
06:54 -1.9 °C -3.9 °C 985.7 hPa NNW 4.8 km/h 11.3 km/h 86 % 0 mm 0 W/m2
06:59 -1.9 °C -3.9 °C 986 hPa NW 3.2 km/h 9.7 km/h 86 % 0 mm 0 W/m2
07:04 -2 °C -4.1 °C 986 hPa NNW 4.8 km/h 9.7 km/h 86 % 0 mm 0 W/m2
07:09 -2 °C -4.1 °C 986 hPa NNW 4.8 km/h 16.1 km/h 86 % 0 mm 0 W/m2
07:14 -1.9 °C -3.9 °C 986.3 hPa NNW 4.8 km/h 12.9 km/h 86 % 0 mm 0 W/m2
07:19 -1.9 °C -3.9 °C 986.3 hPa NNW 6.4 km/h 12.9 km/h 86 % 0 mm 0 W/m2
07:24 -1.9 °C -3.9 °C 986.3 hPa NW 8 km/h 14.5 km/h 86 % 0 mm 0 W/m2
07:29 -1.9 °C -3.9 °C 986.3 hPa NNW 8 km/h 12.9 km/h 86 % 0 mm 0 W/m2
07:34 -1.9 °C -4.1 °C 986.3 hPa NW 6.4 km/h 9.7 km/h 85 % 0 mm 0 W/m2
07:39 -1.9 °C -4.1 °C 986.7 hPa NW 4.8 km/h 8 km/h 85 % 0 mm 0 W/m2
07:42 -2 °C -4.2 °C 986.7 hPa NW 3.2 km/h 8 km/h 85 % 0 mm 0 W/m2
07:47 -2.1 °C -4.3 °C 986.7 hPa NW 1.6 km/h 3.2 km/h 85 % 0 mm 0 W/m2
07:52 -2.2 °C -4.4 °C 986.7 hPa Calm   3.2 km/h 85 % 0 mm 0 W/m2
07:57 -2.3 °C -4.5 °C 987 hPa NW 1.6 km/h 4.8 km/h 85 % 0 mm 0 W/m2
08:02 -2.4 °C -4.6 °C 987 hPa Calm   1.6 km/h 85 % 0 mm 0 W/m2
08:07 -2.6 °C -4.8 °C 987.4 hPa Calm   1.6 km/h 85 % 0 mm 0 W/m2
08:12 -2.7 °C -4.9 °C 987.4 hPa Calm   3.2 km/h 85 % 0 mm 0 W/m2
08:22 -3.1 °C -5.1 °C 987 hPa NW 1.6 km/h 3.2 km/h 86 % 0 mm 0 W/m2
08:27 -3.2 °C -5.2 °C 987.4 hPa NW 4.8 km/h 8 km/h 86 % 0 mm 5 W/m2
08:37 -3.2 °C -4.9 °C 987.4 hPa NW 1.6 km/h 6.4 km/h 88 % 0 mm 7 W/m2
08:42 -3.1 °C -4.8 °C 987.4 hPa NW 3.2 km/h 8 km/h 88 % 0 mm 7 W/m2
08:47 -3 °C -4.7 °C 987.4 hPa NW 1.6 km/h 6.4 km/h 88 % 0 mm 9 W/m2
08:52 -2.9 °C -4.6 °C 987.4 hPa Calm   6.4 km/h 88 % 0 mm 11 W/m2
08:58 -2.8 °C -4.5 °C 987.4 hPa NW 3.2 km/h 9.7 km/h 88 % 0 mm 12 W/m2
09:02 -2.8 °C -4.5 °C 987.4 hPa NW 1.6 km/h 8 km/h 88 % 0 mm 12 W/m2
09:08 -2.7 °C -4.4 °C 987.4 hPa NW 3.2 km/h 8 km/h 88 % 0 mm 14 W/m2
09:18 -2.5 °C -4.2 °C 987.7 hPa NW 3.2 km/h 8 km/h 88 % 0 mm 19 W/m2
09:23 -2.4 °C -4.1 °C 987.7 hPa NW 6.4 km/h 11.3 km/h 88 % 0 mm 23 W/m2
09:28 -2.2 °C -3.9 °C 987.7 hPa NW 8 km/h 14.5 km/h 88 % 0 mm 25 W/m2
09:33 -2.1 °C -3.8 °C 987.7 hPa NW 9.7 km/h 16.1 km/h 88 % 0 mm 26 W/m2
09:38 -1.8 °C -3.7 °C 987.7 hPa NW 9.7 km/h 12.9 km/h 87 % 0 mm 28 W/m2
09:43 -1.7 °C -3.6 °C 987.7 hPa NW 9.7 km/h 17.7 km/h 87 % 0 mm 30 W/m2
09:48 -1.6 °C -3.6 °C 988 hPa NW 11.3 km/h 16.1 km/h 86 % 0 mm 32 W/m2
09:53 -1.4 °C -3.6 °C 988 hPa NW 8 km/h 12.9 km/h 85 % 0 mm 35 W/m2
09:58 -1.3 °C -3.5 °C 988 hPa NW 8 km/h 14.5 km/h 85 % 0 mm 35 W/m2
10:08 -1.1 °C -3.4 °C 988 hPa NW 6.4 km/h 9.7 km/h 84 % 0 mm 33 W/m2
10:13 -1.1 °C -3.4 °C 988 hPa NW 6.4 km/h 9.7 km/h 84 % 0 mm 32 W/m2
10:18 -0.9 °C -3.3 °C 988 hPa NW 6.4 km/h 11.3 km/h 84 % 0 mm 30 W/m2
10:23 -0.8 °C -3.2 °C 988 hPa NW 4.8 km/h 8 km/h 84 % 0 mm 28 W/m2
10:28 -0.7 °C -3.1 °C 988.4 hPa NW 6.4 km/h 12.9 km/h 84 % 0 mm 28 W/m2
10:33 -0.5 °C -2.7 °C 988.4 hPa NW 4.8 km/h 11.3 km/h 85 % 0 mm 23 W/m2
10:38 -0.3 °C -2.7 °C 988.4 hPa NW 6.4 km/h 9.7 km/h 84 % 0 mm 25 W/m2
10:43 -0.2 °C -2.6 °C 988.4 hPa NW 6.4 km/h 12.9 km/h 84 % 0 mm 28 W/m2
10:48 -0.1 °C -2.5 °C 988.4 hPa NW 6.4 km/h 12.9 km/h 84 % 0 mm 26 W/m2
10:53 0 °C -2.4 °C 988.4 hPa NW 8 km/h 12.9 km/h 84 % 0 mm 28 W/m2
10:58 0.1 °C -2.4 °C 988.4 hPa NW 6.4 km/h 9.7 km/h 83 % 0 mm 33 W/m2
11:03 0.1 °C -2.4 °C 988.4 hPa NW 6.4 km/h 9.7 km/h 83 % 0 mm 32 W/m2
11:13 0.1 °C -2.6 °C 988.4 hPa NW 4.8 km/h 8 km/h 82 % 0 mm 70 W/m2
11:18 0.1 °C -2.6 °C 988.7 hPa NW 8 km/h 11.3 km/h 82 % 0 mm 77 W/m2
11:23 0.2 °C -2.5 °C 988.7 hPa NW 8 km/h 16.1 km/h 82 % 0 mm 88 W/m2
11:24 0.2 °C -2.5 °C 988.7 hPa NW 8 km/h 14.5 km/h 82 % 0 mm 90 W/m2
11:34 0.4 °C -2.3 °C 988.7 hPa NNW 8 km/h 12.9 km/h 82 % 0 mm 130 W/m2
11:39 0.6 °C -2.1 °C 988.7 hPa NW 9.7 km/h 17.7 km/h 82 % 0 mm 86 W/m2
11:44 0.8 °C -2.1 °C 988.7 hPa NW 6.4 km/h 11.3 km/h 81 % 0 mm 174 W/m2
11:49 0.9 °C -2.2 °C 988.7 hPa NW 11.3 km/h 16.1 km/h 80 % 0 mm 88 W/m2
11:54 0.9 °C -2.2 °C 988.7 hPa NW 12.9 km/h 20.9 km/h 80 % 0 mm 148 W/m2
11:57 0.9 °C -2.2 °C 988.7 hPa NW 12.9 km/h 17.7 km/h 80 % 0 mm 193 W/m2
12:02 1.1 °C -2.1 °C 988.7 hPa NW 12.9 km/h 20.9 km/h 79 % 0 mm 264 W/m2
12:07 1.2 °C -2.1 °C 988.7 hPa NW 11.3 km/h 17.7 km/h 79 % 0 mm 327 W/m2
12:12 1.4 °C -1.8 °C 988.7 hPa NW 12.9 km/h 20.9 km/h 79 % 0 mm 341 W/m2
12:17 1.6 °C -1.8 °C 988.7 hPa NW 14.5 km/h 22.5 km/h 78 % 0 mm 334 W/m2
12:22 1.7 °C -1.9 °C 989.1 hPa NW 12.9 km/h 20.9 km/h 77 % 0 mm 285 W/m2
12:27 1.8 °C -1.8 °C 989.1 hPa NW 12.9 km/h 17.7 km/h 77 % 0 mm 276 W/m2
12:32 1.9 °C -1.7 °C 989.1 hPa NW 12.9 km/h 19.3 km/h 77 % 0 mm 239 W/m2
12:37 2.1 °C -1.5 °C 989.1 hPa NW 11.3 km/h 19.3 km/h 77 % 0.25 mm 227 W/m2
12:42 2.1 °C -1.7 °C 989.1 hPa NW 12.9 km/h 17.7 km/h 76 % 0.25 mm 225 W/m2
12:47 2.2 °C -1.6 °C 989.1 hPa NW 11.3 km/h 20.9 km/h 76 % 0.25 mm 221 W/m2
12:52 2.3 °C -1.5 °C 989.1 hPa NW 11.3 km/h 17.7 km/h 76 % 0.25 mm 220 W/m2
12:57 2.3 °C -1.5 °C 989.1 hPa NW 11.3 km/h 16.1 km/h 76 % 0.25 mm 216 W/m2
13:02 2.4 °C -1.6 °C 989.4 hPa NW 8 km/h 16.1 km/h 75 % 0.25 mm 213 W/m2
13:07 2.6 °C -1.4 °C 989.4 hPa NW 8 km/h 17.7 km/h 75 % 0.25 mm 209 W/m2
13:08 2.6 °C -1.4 °C 989.4 hPa NW 8 km/h 17.7 km/h 75 % 0.25 mm 209 W/m2
13:13 2.7 °C -1.3 °C 989.4 hPa NW 6.4 km/h 11.3 km/h 75 % 0.25 mm 202 W/m2
13:18 2.8 °C -1.4 °C 989.4 hPa NW 9.7 km/h 14.5 km/h 74 % 0.25 mm 199 W/m2
13:23 2.9 °C -1.4 °C 989.7 hPa NW 11.3 km/h 19.3 km/h 73 % 0.25 mm 195 W/m2
13:28 2.9 °C -1.4 °C 989.7 hPa NW 11.3 km/h 17.7 km/h 73 % 0.25 mm 190 W/m2
13:33 2.9 °C -1.4 °C 989.7 hPa NW 11.3 km/h 17.7 km/h 73 % 0 mm 185 W/m2
13:38 2.9 °C -1.4 °C 989.7 hPa NW 12.9 km/h 20.9 km/h 73 % 0 mm 178 W/m2
13:43 2.8 °C -1.8 °C 989.7 hPa NW 11.3 km/h 19.3 km/h 72 % 0 mm 171 W/m2
13:48 2.8 °C -1.8 °C 990.1 hPa NW 12.9 km/h 17.7 km/h 72 % 0 mm 165 W/m2
13:53 2.8 °C -1.8 °C 990.1 hPa NW 12.9 km/h 19.3 km/h 72 % 0 mm 162 W/m2
13:58 2.8 °C -1.8 °C 990.1 hPa NW 11.3 km/h 19.3 km/h 72 % 0.25 mm 153 W/m2
14:03 2.8 °C -1.9 °C 990.1 hPa NW 11.3 km/h 17.7 km/h 71 % 0.25 mm 144 W/m2
14:08 2.8 °C -1.9 °C 990.1 hPa NW 9.7 km/h 14.5 km/h 71 % 0.25 mm 139 W/m2
14:13 2.8 °C -1.9 °C 990.1 hPa NW 14.5 km/h 19.3 km/h 71 % 0.25 mm 134 W/m2
14:18 2.8 °C -1.9 °C 990.1 hPa NW 9.7 km/h 17.7 km/h 71 % 0.25 mm 125 W/m2
14:23 2.7 °C -2.1 °C 990.4 hPa NW 8 km/h 16.1 km/h 71 % 0.25 mm 114 W/m2
14:28 2.7 °C -2.1 °C 990.4 hPa NW 8 km/h 14.5 km/h 71 % 0.25 mm 102 W/m2
14:33 2.6 °C -2.1 °C 990.4 hPa NW 9.7 km/h 17.7 km/h 71 % 0.25 mm 100 W/m2
14:38 2.5 °C -2.2 °C 990.4 hPa NW 9.7 km/h 17.7 km/h 71 % 0.25 mm 91 W/m2
14:43 2.4 °C -2.3 °C 990.4 hPa NW 9.7 km/h 14.5 km/h 71 % 0.25 mm 83 W/m2
14:48 2.2 °C -2.3 °C 990.4 hPa NW 9.7 km/h 14.5 km/h 72 % 0.25 mm 74 W/m2
14:53 2.1 °C -2.4 °C 990.4 hPa NNW 9.7 km/h 17.7 km/h 72 % 0.25 mm 53 W/m2
14:58 2 °C -2.5 °C 990.4 hPa NW 8 km/h 12.9 km/h 72 % 0 mm 23 W/m2
15:03 1.9 °C -2.4 °C 990.4 hPa NW 11.3 km/h 17.7 km/h 73 % 0 mm 19 W/m2
15:08 1.8 °C -2.6 °C 990.4 hPa NW 9.7 km/h 14.5 km/h 73 % 0 mm 18 W/m2
15:13 1.7 °C -2.6 °C 990.7 hPa NW 9.7 km/h 16.1 km/h 73 % 0 mm 16 W/m2
15:19 1.5 °C -2.8 °C 990.7 hPa NW 8 km/h 12.9 km/h 73 % 0 mm 14 W/m2
15:24 1.4 °C -2.7 °C 990.7 hPa NW 9.7 km/h 12.9 km/h 74 % 0 mm 14 W/m2
15:29 1.2 °C -2.9 °C 990.7 hPa NW 8 km/h 12.9 km/h 74 % 0 mm 11 W/m2
15:39 1 °C -3.1 °C 991.1 hPa NW 8 km/h 14.5 km/h 74 % 0 mm 7 W/m2
15:44 0.8 °C -3.1 °C 991.1 hPa NW 8 km/h 14.5 km/h 75 % 0 mm 5 W/m2
15:49 0.7 °C -3.2 °C 991.1 hPa NW 6.4 km/h 11.3 km/h 75 % 0 mm 5 W/m2
15:55 0.6 °C -3.3 °C 991.1 hPa NNW 4.8 km/h 11.3 km/h 75 % 0 mm 0 W/m2
15:59 0.5 °C -3.4 °C 991.4 hPa NW 8 km/h 14.5 km/h 75 % 0 mm 0 W/m2
16:04 0.4 °C -3.3 °C 991.4 hPa NW 6.4 km/h 11.3 km/h 76 % 0 mm 0 W/m2
16:10 0.3 °C -3.4 °C 991.8 hPa NW 8 km/h 11.3 km/h 76 % 0 mm 0 W/m2
16:15 0.2 °C -3.6 °C 991.8 hPa NW 8 km/h 12.9 km/h 76 % 0 mm 0 W/m2
16:20 0.1 °C -3.6 °C 991.8 hPa NW 8 km/h 16.1 km/h 76 % 0 mm 0 W/m2
16:25 0 °C -3.7 °C 992.1 hPa NW 4.8 km/h 11.3 km/h 76 % 0 mm 0 W/m2
16:30 -0.1 °C -3.7 °C 992.1 hPa WNW 6.4 km/h 11.3 km/h 77 % 0 mm 0 W/m2
16:35 -0.2 °C -3.7 °C 992.1 hPa WNW 6.4 km/h 11.3 km/h 77 % 0 mm 0 W/m2
16:40 -0.3 °C -3.7 °C 992.1 hPa WNW 6.4 km/h 9.7 km/h 78 % 0 mm 0 W/m2
16:45 -0.4 °C -3.8 °C 992.1 hPa WNW 4.8 km/h 9.7 km/h 78 % 0 mm 0 W/m2
16:50 -0.6 °C -3.9 °C 992.1 hPa WNW 4.8 km/h 9.7 km/h 78 % 0 mm 0 W/m2
16:55 -0.7 °C -3.9 °C 992.1 hPa WNW 8 km/h 11.3 km/h 79 % 0 mm 0 W/m2
16:56 -0.7 °C -3.9 °C 992.1 hPa WNW 8 km/h 11.3 km/h 79 % 0 mm 0 W/m2
17:01 -0.8 °C -4 °C 992.1 hPa WNW 6.4 km/h 9.7 km/h 79 % 0 mm 0 W/m2
17:06 -0.8 °C -3.8 °C 992.4 hPa NW 6.4 km/h 9.7 km/h 80 % 0 mm 0 W/m2
17:11 -0.9 °C -3.9 °C 992.4 hPa NW 6.4 km/h 12.9 km/h 80 % 0 mm 0 W/m2
17:16 -0.9 °C -3.9 °C 992.4 hPa WNW 8 km/h 12.9 km/h 80 % 0 mm 0 W/m2
17:21 -0.8 °C -3.8 °C 992.4 hPa WNW 8 km/h 16.1 km/h 80 % 0 mm 0 W/m2
17:31 -0.8 °C -3.7 °C 992.8 hPa NW 8 km/h 17.7 km/h 81 % 0 mm 0 W/m2
17:36 -0.8 °C -3.7 °C 992.8 hPa NW 8 km/h 11.3 km/h 81 % 0 mm 0 W/m2
17:41 -0.8 °C -3.7 °C 992.8 hPa NW 9.7 km/h 16.1 km/h 81 % 0 mm 0 W/m2
17:46 -0.7 °C -3.4 °C 993.1 hPa NW 11.3 km/h 20.9 km/h 82 % 0 mm 0 W/m2
17:51 -0.6 °C -3.3 °C 993.1 hPa WNW 11.3 km/h 17.7 km/h 82 % 0 mm 0 W/m2
17:56 -0.6 °C -3.4 °C 993.1 hPa NW 9.7 km/h 16.1 km/h 81 % 0 mm 0 W/m2
18:01 -0.6 °C -3.4 °C 993.1 hPa WNW 11.3 km/h 16.1 km/h 81 % 0 mm 0 W/m2
18:06 -0.6 °C -3.4 °C 993.1 hPa WNW 11.3 km/h 19.3 km/h 81 % 0 mm 0 W/m2
18:11 -0.7 °C -3.6 °C 993.1 hPa NW 9.7 km/h 12.9 km/h 81 % 0 mm 0 W/m2
18:16 -0.7 °C -3.4 °C 993.1 hPa NW 9.7 km/h 12.9 km/h 82 % 0 mm 0 W/m2
18:21 -0.8 °C -3.5 °C 993.5 hPa NW 8 km/h 14.5 km/h 82 % 0 mm 0 W/m2
18:26 -0.9 °C -3.6 °C 993.5 hPa NW 8 km/h 12.9 km/h 82 % 0 mm 0 W/m2
18:31 -0.9 °C -3.6 °C 993.5 hPa NW 8 km/h 12.9 km/h 82 % 0 mm 0 W/m2
18:36 -0.9 °C -3.6 °C 993.8 hPa NW 8 km/h 12.9 km/h 82 % 0 mm 0 W/m2
18:41 -0.9 °C -3.4 °C 993.8 hPa WNW 9.7 km/h 14.5 km/h 83 % 0 mm 0 W/m2
18:46 -0.9 °C -3.4 °C 993.8 hPa WNW 9.7 km/h 17.7 km/h 83 % 0 mm 0 W/m2
18:51 -1 °C -3.5 °C 993.8 hPa WNW 9.7 km/h 14.5 km/h 83 % 0 mm 0 W/m2
18:56 -1 °C -3.5 °C 993.8 hPa NW 9.7 km/h 14.5 km/h 83 % 0 mm 0 W/m2
19:01 -1 °C -3.5 °C 994.1 hPa NW 9.7 km/h 12.9 km/h 83 % 0 mm 0 W/m2
19:06 -1 °C -3.4 °C 994.5 hPa NW 9.7 km/h 14.5 km/h 84 % 0 mm 0 W/m2
19:21 -1.1 °C -3.4 °C 994.8 hPa NW 8 km/h 12.9 km/h 84 % 0 mm 0 W/m2
19:26 -1.1 °C -3.3 °C 994.8 hPa NW 8 km/h 11.3 km/h 85 % 0 mm 0 W/m2
19:31 -1.1 °C -3.3 °C 994.8 hPa WNW 6.4 km/h 11.3 km/h 85 % 0 mm 0 W/m2
19:36 -1 °C -3.2 °C 995.1 hPa NW 8 km/h 12.9 km/h 85 % 0 mm 0 W/m2
19:41 -0.9 °C -3.1 °C 995.1 hPa WNW 8 km/h 11.3 km/h 85 % 0 mm 0 W/m2
19:47 -0.9 °C -3.1 °C 995.5 hPa NW 8 km/h 12.9 km/h 85 % 0 mm 0 W/m2
19:52 -0.9 °C -3.1 °C 995.5 hPa WNW 8 km/h 11.3 km/h 85 % 0 mm 0 W/m2
19:57 -0.9 °C -3.1 °C 995.5 hPa WNW 8 km/h 16.1 km/h 85 % 0 mm 0 W/m2
20:02 -0.9 °C -2.9 °C 995.8 hPa WNW 6.4 km/h 11.3 km/h 86 % 0 mm 0 W/m2
20:07 -1 °C -3.1 °C 995.8 hPa NW 6.4 km/h 9.7 km/h 86 % 0 mm 0 W/m2
20:12 -1 °C -3.1 °C 995.8 hPa WNW 9.7 km/h 12.9 km/h 86 % 0 mm 0 W/m2
20:17 -1 °C -3.1 °C 996.2 hPa NW 8 km/h 11.3 km/h 86 % 0 mm 0 W/m2
20:22 -1 °C -3.1 °C 996.2 hPa WNW 8 km/h 14.5 km/h 86 % 0 mm 0 W/m2
20:27 -1.1 °C -3.2 °C 996.2 hPa WNW 6.4 km/h 11.3 km/h 86 % 0 mm 0 W/m2
20:28 -1.1 °C -3.2 °C 996.5 hPa WNW 6.4 km/h 11.3 km/h 86 % 0 mm 0 W/m2
20:33 -1.1 °C -3.2 °C 996.5 hPa WNW 4.8 km/h 9.7 km/h 86 % 0 mm 0 W/m2
20:38 -1.1 °C -3 °C 996.8 hPa WNW 8 km/h 11.3 km/h 87 % 0 mm 0 W/m2
20:48 -1.1 °C -3 °C 996.8 hPa WNW 6.4 km/h 9.7 km/h 87 % 0 mm 0 W/m2
20:53 -1.2 °C -3.1 °C 996.8 hPa NW 6.4 km/h 14.5 km/h 87 % 0 mm 0 W/m2
20:58 -1.1 °C -2.8 °C 996.8 hPa WNW 9.7 km/h 14.5 km/h 88 % 0 mm 0 W/m2
21:03 -1.1 °C -2.8 °C 996.8 hPa NW 9.7 km/h 12.9 km/h 88 % 0 mm 0 W/m2
21:05 -1.1 °C -2.8 °C 996.8 hPa NW 9.7 km/h 14.5 km/h 88 % 0 mm 0 W/m2
21:10 -1 °C -2.7 °C 997.2 hPa NW 8 km/h 12.9 km/h 88 % 0 mm 0 W/m2
21:15 -0.9 °C -2.5 °C 997.2 hPa NW 6.4 km/h 11.3 km/h 89 % 0 mm 0 W/m2
21:20 -0.9 °C -2.5 °C 997.2 hPa WNW 8 km/h 11.3 km/h 89 % 0 mm 0 W/m2
21:30 -0.9 °C -2.5 °C 997.5 hPa NW 6.4 km/h 11.3 km/h 89 % 0 mm 0 W/m2
21:35 -0.8 °C -2.4 °C 997.5 hPa NW 8 km/h 14.5 km/h 89 % 0 mm 0 W/m2
21:40 -0.8 °C -2.4 °C 997.9 hPa NW 8 km/h 11.3 km/h 89 % 0 mm 0 W/m2
21:45 -0.8 °C -2.4 °C 997.5 hPa WNW 9.7 km/h 12.9 km/h 89 % 0 mm 0 W/m2
21:50 -0.8 °C -2.4 °C 997.9 hPa WNW 8 km/h 11.3 km/h 89 % 0 mm 0 W/m2
21:55 -0.8 °C -2.4 °C 997.9 hPa WNW 8 km/h 12.9 km/h 89 % 0 mm 0 W/m2
22:00 -0.8 °C -2.4 °C 997.9 hPa NW 8 km/h 14.5 km/h 89 % 0 mm 0 W/m2
22:05 -0.8 °C -2.4 °C 997.9 hPa NW 6.4 km/h 12.9 km/h 89 % 0 mm 0 W/m2
22:10 -0.8 °C -2.4 °C 997.9 hPa NW 8 km/h 14.5 km/h 89 % 0 mm 0 W/m2
22:15 -0.7 °C -2.1 °C 997.9 hPa NW 9.7 km/h 16.1 km/h 90 % 0 mm 0 W/m2
22:20 -0.7 °C -2.1 °C 998.2 hPa NW 11.3 km/h 17.7 km/h 90 % 0 mm 0 W/m2
22:25 -0.6 °C -2.1 °C 998.2 hPa WNW 9.7 km/h 14.5 km/h 90 % 0 mm 0 W/m2
22:30 -0.6 °C -2.2 °C 998.2 hPa WNW 9.7 km/h 14.5 km/h 89 % 0 mm 0 W/m2
22:35 -0.6 °C -2.2 °C 998.2 hPa NW 9.7 km/h 16.1 km/h 89 % 0 mm 0 W/m2
22:40 -0.6 °C -2.2 °C 998.2 hPa WNW 9.7 km/h 12.9 km/h 89 % 0 mm 0 W/m2
22:45 -0.6 °C -2.2 °C 998.2 hPa WNW 11.3 km/h 16.1 km/h 89 % 0 mm 0 W/m2
22:50 -0.5 °C -2.1 °C 998.2 hPa WNW 9.7 km/h 14.5 km/h 89 % 0 mm 0 W/m2
22:55 -0.5 °C -2.1 °C 998.5 hPa NW 8 km/h 12.9 km/h 89 % 0 mm 0 W/m2
23:00 -0.5 °C -2.1 °C 998.5 hPa NW 8 km/h 11.3 km/h 89 % 0 mm 0 W/m2
23:05 -0.5 °C -2.1 °C 998.5 hPa NW 9.7 km/h 12.9 km/h 89 % 0 mm 0 W/m2
23:10 -0.5 °C -2.1 °C 998.5 hPa NW 8 km/h 12.9 km/h 89 % 0 mm 0 W/m2
23:15 -0.6 °C -2.2 °C 998.5 hPa WNW 6.4 km/h 11.3 km/h 89 % 0 mm 0 W/m2
23:20 -0.6 °C -2.2 °C 998.5 hPa WNW 8 km/h 11.3 km/h 89 % 0 mm 0 W/m2
23:25 -0.6 °C -2.2 °C 998.5 hPa WNW 8 km/h 12.9 km/h 89 % 0 mm 0 W/m2
23:35 -0.6 °C -2.1 °C 998.9 hPa WNW 9.7 km/h 16.1 km/h 90 % 0 mm 0 W/m2
23:40 -0.6 °C -2.1 °C 998.9 hPa WNW 8 km/h 14.5 km/h 90 % 0 mm 0 W/m2
23:45 -0.5 °C -1.9 °C 999.2 hPa WNW 11.3 km/h 14.5 km/h 90 % 0 mm 0 W/m2
23:50 -0.5 °C -1.9 °C 999.2 hPa NW 9.7 km/h 14.5 km/h 90 % 0 mm 0 W/m2
23:55 -0.5 °C -1.9 °C 999.2 hPa NW 9.7 km/h 14.5 km/h 90 % 0 mm 0 W/m2
Delerius-Weather
Compliments of Weather Underground - 2.25 mb

Data updates at regular intervals.